Aviation Digital Data Service (ADDS)

Output produced by METARs form (0108 UTC 07 February 2016)
found at http://aviationweather.gov/adds/metars/
 
KBTV 062320Z 0700/0724 20008KT P6SM VCSH BKN050 
     FM070500 21007KT P6SM OVC045 
     FM071700 VRB03KT P6SM OVC035